Time;durP1;ratioP1;P1;durP2;ratioP2;P2;SDS_P1;SDS_P2;PMS_P1;PMS_P2;Temp;Humidity;BMP_temperature;BMP_pressure;BME280_temperature;BME280_humidity;BME280_pressure;Samples;Min_cycle;Max_cycle;Signal;HPM_P1;HPM_P2
2023/09/30 00:01:45;;;;;;;0.30;0.30;;;;;;;19.57;39.96;101568.66;5050835;28;20879;-85
2023/09/30 00:04:10;;;;;;;0.40;0.32;;;;;;;19.51;40.24;101559.56;5065461;28;20400;-86
2023/09/30 00:06:36;;;;;;;0.40;0.30;;;;;;;19.36;40.79;101561.66;5050334;28;20404;-86
2023/09/30 00:09:02;;;;;;;0.30;0.30;;;;;;;19.30;40.92;101565.97;5050681;28;20369;-86
2023/09/30 00:11:28;;;;;;;0.40;0.40;;;;;;;19.27;40.84;101563.72;5050277;28;20716;-88
2023/09/30 00:13:54;;;;;;;0.25;0.25;;;;;;;19.33;40.83;101570.13;5050566;28;20441;-85
2023/09/30 00:16:20;;;;;;;0.30;0.30;;;;;;;19.33;40.69;101565.56;5048751;28;20404;-85
2023/09/30 00:18:46;;;;;;;0.40;0.40;;;;;;;19.28;40.95;101568.06;5050405;28;20439;-86
2023/09/30 00:21:12;;;;;;;0.43;0.40;;;;;;;19.28;40.53;101568.91;5048436;28;20393;-85
2023/09/30 00:23:38;;;;;;;0.40;0.40;;;;;;;19.33;40.48;101568.28;5048121;28;20385;-86
2023/09/30 00:26:05;;;;;;;0.25;0.25;;;;;;;19.36;40.16;101567.03;5048937;28;20462;-86
2023/09/30 00:28:30;;;;;;;0.20;0.20;;;;;;;19.41;40.21;101562.69;5050520;28;20474;-84
2023/09/30 00:30:56;;;;;;;0.27;0.27;;;;;;;19.45;40.04;101558.53;5047581;28;20526;-86
2023/09/30 00:33:21;;;;;;;0.40;0.40;;;;;;;19.47;39.81;101561.03;5047371;28;20845;-85
2023/09/30 00:35:47;;;;;;;0.55;0.40;;;;;;;19.49;39.89;101565.16;5047631;28;20388;-86
2023/09/30 00:38:14;;;;;;;0.40;0.30;;;;;;;19.50;39.94;101552.56;5046545;28;20439;-87
2023/09/30 00:40:39;;;;;;;0.50;0.30;;;;;;;19.48;39.88;101555.44;5046935;28;20438;-87
2023/09/30 00:43:06;;;;;;;0.40;0.40;;;;;;;19.33;40.18;101554.81;5030348;28;20393;-86
2023/09/30 00:45:38;;;;;;;0.30;0.30;;;;;;;19.27;40.42;101556.47;5031271;28;20879;-86
2023/09/30 00:48:04;;;;;;;0.22;0.22;;;;;;;19.19;40.72;101548.63;5015098;28;20392;-86
2023/09/30 00:50:31;;;;;;;0.40;0.30;;;;;;;19.18;40.46;101552.34;5048367;28;20393;-86
2023/09/30 00:52:59;;;;;;;0.20;0.20;;;;;;;19.21;40.48;101554.63;5015515;28;20464;-87
2023/09/30 00:55:24;;;;;;;0.60;0.60;;;;;;;19.24;40.41;101561.44;5031421;28;20495;-86
2023/09/30 00:57:50;;;;;;;0.20;0.20;;;;;;;19.26;40.38;101567.44;5030769;28;20930;-86
2023/09/30 01:00:19;;;;;;;0.63;0.40;;;;;;;19.21;40.43;101559.16;5048509;28;20502;-87
2023/09/30 01:02:45;;;;;;;0.30;0.30;;;;;;;19.18;40.61;101567.66;5017225;28;20525;-85
2023/09/30 01:05:11;;;;;;;0.43;0.32;;;;;;;19.10;40.92;101560.59;5033685;28;20389;-85
2023/09/30 01:07:37;;;;;;;0.30;0.30;;;;;;;19.07;40.94;101564.53;5048265;28;20405;-87
2023/09/30 01:10:03;;;;;;;0.32;0.30;;;;;;;19.00;41.21;101555.66;5046615;28;20396;-85
2023/09/30 01:12:28;;;;;;;0.35;0.30;;;;;;;18.94;41.54;101574.44;5031906;28;20957;-84
2023/09/30 01:14:59;;;;;;;0.43;0.40;;;;;;;18.86;42.08;101572.78;5047920;28;20424;-86
2023/09/30 01:17:29;;;;;;;0.40;0.40;;;;;;;18.81;42.22;101567.16;5014396;28;20393;-86
2023/09/30 01:20:00;;;;;;;0.30;0.30;;;;;;;18.78;42.07;101571.09;5047674;28;20457;-85
2023/09/30 01:22:28;;;;;;;0.40;0.35;;;;;;;18.78;42.32;101572.94;5067122;28;20396;-83
2023/09/30 01:24:55;;;;;;;0.30;0.30;;;;;;;18.73;42.30;101569.00;5052135;28;20879;-83
2023/09/30 01:27:21;;;;;;;0.63;0.52;;;;;;;18.72;41.96;101566.53;5072932;28;20408;-85
2023/09/30 01:29:49;;;;;;;0.45;0.45;;;;;;;18.73;42.05;101566.31;5046982;28;20463;-86
2023/09/30 01:32:15;;;;;;;0.60;0.60;;;;;;;18.68;42.18;101571.47;5047399;28;20416;-85
2023/09/30 01:34:40;;;;;;;0.60;0.40;;;;;;;18.57;42.37;101565.88;5046466;28;20467;-86
2023/09/30 01:37:25;;;;;;;0.40;0.40;;;;;;;18.58;42.22;101568.34;5048162;28;20389;-84
2023/09/30 01:39:54;;;;;;;0.52;0.43;;;;;;;18.66;41.95;101568.16;5047064;28;20503;-85
2023/09/30 01:42:21;;;;;;;0.43;0.40;;;;;;;18.70;41.84;101563.22;5048149;28;20401;-86
2023/09/30 01:44:47;;;;;;;0.40;0.40;;;;;;;18.79;41.39;101566.53;5048250;28;20464;-84
2023/09/30 01:47:13;;;;;;;0.68;0.52;;;;;;;18.75;41.64;101570.66;5053425;28;20392;-86
2023/09/30 01:49:38;;;;;;;0.40;0.30;;;;;;;18.73;41.58;101569.00;5052211;28;20383;-85
2023/09/30 01:52:07;;;;;;;0.20;0.20;;;;;;;18.70;41.76;101576.63;5047685;28;21346;-86
2023/09/30 01:54:35;;;;;;;0.40;0.40;;;;;;;18.68;41.61;101574.16;5048369;28;20561;-84
2023/09/30 01:57:03;;;;;;;0.40;0.40;;;;;;;18.71;41.60;101564.88;5048348;28;20916;-84
2023/09/30 01:59:28;;;;;;;0.30;0.30;;;;;;;18.70;41.63;101572.09;5046524;28;20493;-85
2023/09/30 02:01:57;;;;;;;0.50;0.40;;;;;;;18.66;42.00;101573.53;5030696;28;20458;-84
2023/09/30 02:04:23;;;;;;;0.30;0.30;;;;;;;18.60;41.79;101563.63;5048123;28;20783;-86
2023/09/30 02:06:49;;;;;;;0.60;0.50;;;;;;;18.65;41.44;101568.34;5048011;28;20403;-84
2023/09/30 02:09:15;;;;;;;0.40;0.40;;;;;;;18.63;41.68;101562.38;5047516;28;20475;-85
2023/09/30 02:11:43;;;;;;;0.45;0.40;;;;;;;18.64;41.81;101566.72;5052403;28;20411;-84
2023/09/30 02:14:11;;;;;;;0.30;0.30;;;;;;;18.62;41.74;101566.91;5066983;28;20768;-86
2023/09/30 02:16:38;;;;;;;0.30;0.30;;;;;;;18.57;41.85;101569.38;5067493;28;20396;-86
2023/09/30 02:19:04;;;;;;;0.40;0.30;;;;;;;18.64;41.82;101572.91;5050601;28;20400;-86
2023/09/30 02:21:29;;;;;;;0.50;0.50;;;;;;;18.59;41.92;101567.31;5051507;28;20400;-86
2023/09/30 02:23:57;;;;;;;0.25;0.25;;;;;;;18.61;41.89;101562.56;5049886;28;20439;-85
2023/09/30 02:26:27;;;;;;;0.20;0.20;;;;;;;18.62;41.68;101560.69;5052370;28;20783;-86
2023/09/30 02:28:53;;;;;;;0.40;0.40;;;;;;;18.70;41.64;101560.53;5051791;28;20431;-86
2023/09/30 02:31:22;;;;;;;0.40;0.40;;;;;;;18.75;41.52;101560.75;5050171;28;20413;-85
2023/09/30 02:33:56;;;;;;;0.40;0.30;;;;;;;18.78;41.68;101562.19;5068871;28;20810;-87
2023/09/30 02:36:22;;;;;;;0.45;0.35;;;;;;;18.73;41.66;101554.75;5052309;28;20394;-86
2023/09/30 02:38:48;;;;;;;0.30;0.30;;;;;;;18.66;41.67;101548.53;5052431;28;20429;-87
2023/09/30 02:41:17;;;;;;;0.45;0.40;;;;;;;18.69;41.65;101550.81;5068389;28;20398;-85
2023/09/30 02:43:42;;;;;;;1.90;1.20;;;;;;;18.71;41.67;101565.69;5069268;28;20383;-86
2023/09/30 02:46:09;;;;;;;0.35;0.35;;;;;;;18.78;41.60;101562.19;5052406;28;20591;-86
2023/09/30 02:48:35;;;;;;;0.40;0.40;;;;;;;18.76;41.37;101565.06;5068696;28;20430;-85
2023/09/30 02:51:01;;;;;;;0.40;0.40;;;;;;;18.76;41.57;101565.06;5048149;28;20432;-86
2023/09/30 02:53:26;;;;;;;0.40;0.40;;;;;;;18.71;41.71;101559.50;5032511;28;20403;-86
2023/09/30 02:55:56;;;;;;;0.60;0.60;;;;;;;18.64;41.75;101564.03;5032082;28;20427;-87
2023/09/30 02:58:24;;;;;;;1.15;0.68;;;;;;;18.60;41.91;101560.94;5032597;28;20494;-86
2023/09/30 03:00:50;;;;;;;0.60;0.60;;;;;;;18.56;42.11;101558.84;5048891;28;20451;-86
2023/09/30 03:03:17;;;;;;;0.57;0.50;;;;;;;18.50;42.32;101555.09;5031705;28;20412;-87
2023/09/30 03:05:42;;;;;;;0.40;0.40;;;;;;;18.54;42.25;101564.41;5014612;28;20410;-85
2023/09/30 03:08:10;;;;;;;0.40;0.40;;;;;;;18.53;42.07;101557.41;5029541;28;20445;-86
2023/09/30 03:10:40;;;;;;;0.55;0.55;;;;;;;18.55;42.20;101560.69;5028765;28;20395;-87
2023/09/30 03:13:08;;;;;;;0.40;0.30;;;;;;;18.51;42.25;101562.13;5012994;28;20413;-87
2023/09/30 03:15:38;;;;;;;1.50;1.10;;;;;;;18.54;42.23;101551.78;5027047;28;20825;-88
2023/09/30 03:18:11;;;;;;;0.20;0.20;;;;;;;18.52;42.48;101555.72;5013964;28;20460;-86
2023/09/30 03:20:40;;;;;;;0.40;0.30;;;;;;;18.44;42.36;101558.56;5023991;28;20406;-84
2023/09/30 03:23:08;;;;;;;0.60;0.60;;;;;;;18.41;42.46;101554.44;5053733;28;20879;-86
2023/09/30 03:25:36;;;;;;;0.32;0.28;;;;;;;18.41;42.48;101561.69;5051716;28;20400;-87
2023/09/30 03:28:06;;;;;;;0.60;0.60;;;;;;;18.36;42.76;101564.16;5052333;28;20404;-87
2023/09/30 03:30:31;;;;;;;0.20;0.20;;;;;;;18.33;42.97;101566.19;5051709;28;20384;-87
2023/09/30 03:32:57;;;;;;;0.70;0.50;;;;;;;18.33;42.81;101571.56;5050480;28;20408;-87
2023/09/30 03:35:25;;;;;;;0.20;0.20;;;;;;;18.37;42.72;101573.88;5050319;28;20483;-86
2023/09/30 03:37:50;;;;;;;0.30;0.30;;;;;;;18.46;42.45;101575.34;5067500;28;20404;-87
2023/09/30 03:40:20;;;;;;;0.38;0.30;;;;;;;18.47;42.46;101577.78;5053767;28;20400;-88
2023/09/30 03:42:51;;;;;;;0.40;0.40;;;;;;;18.43;42.44;101576.56;5062802;28;20401;-86
2023/09/30 03:45:18;;;;;;;0.43;0.40;;;;;;;18.40;42.60;101571.59;5052208;28;21314;-88
2023/09/30 03:47:47;;;;;;;0.33;0.33;;;;;;;18.33;42.77;101568.06;4999189;28;20396;-86
2023/09/30 03:50:14;;;;;;;0.47;0.40;;;;;;;18.27;43.03;101579.59;5050555;28;20385;-86
2023/09/30 03:52:43;;;;;;;0.47;0.47;;;;;;;18.13;43.43;101571.50;5054112;28;20404;-88
2023/09/30 03:55:15;;;;;;;0.30;0.30;;;;;;;18.00;43.88;101576.75;5050476;28;20752;-86
2023/09/30 03:57:41;;;;;;;0.30;0.30;;;;;;;18.05;43.69;101579.69;5049894;28;20903;-87
2023/09/30 04:00:11;;;;;;;0.55;0.47;;;;;;;18.03;43.75;101580.94;5050641;28;20392;-88
2023/09/30 04:02:38;;;;;;;0.70;0.70;;;;;;;17.91;44.23;101575.28;5050747;28;20998;-88
2023/09/30 04:05:05;;;;;;;0.45;0.40;;;;;;;17.82;44.36;101579.13;5050033;28;20388;-88
2023/09/30 04:07:33;;;;;;;0.50;0.40;;;;;;;17.77;44.63;101580.53;5050090;28;20396;-86
2023/09/30 04:10:01;;;;;;;0.52;0.43;;;;;;;17.81;44.45;101575.59;5066549;28;20454;-87
2023/09/30 04:12:31;;;;;;;0.57;0.50;;;;;;;17.84;44.29;101571.69;5049219;28;20898;-86
2023/09/30 04:14:58;;;;;;;0.30;0.30;;;;;;;17.76;44.46;101570.81;5055368;28;20392;-86
2023/09/30 04:17:27;;;;;;;0.50;0.40;;;;;;;17.50;45.72;101584.03;5071639;28;20407;-86
2023/09/30 04:19:53;;;;;;;0.38;0.35;;;;;;;17.25;46.13;101571.06;5086625;28;20436;-87
2023/09/30 04:22:20;;;;;;;0.40;0.30;;;;;;;17.43;45.77;101577.78;5049470;28;20393;-85
2023/09/30 04:24:50;;;;;;;0.30;0.30;;;;;;;17.51;45.66;101577.66;5075560;28;20387;-86
2023/09/30 04:27:16;;;;;;;0.30;0.30;;;;;;;17.46;45.59;101578.25;5078894;28;20874;-84
2023/09/30 04:29:43;;;;;;;0.38;0.38;;;;;;;17.47;45.77;101579.09;5073778;28;20413;-80
2023/09/30 04:32:09;;;;;;;0.30;0.30;;;;;;;17.49;45.63;101587.75;5069578;28;20445;-80
2023/09/30 04:34:35;;;;;;;0.30;0.30;;;;;;;17.47;45.57;101585.28;5072480;28;20379;-82
2023/09/30 04:37:03;;;;;;;0.40;0.40;;;;;;;17.48;45.83;101581.53;5070709;28;20390;-82
2023/09/30 04:39:29;;;;;;;0.25;0.25;;;;;;;17.53;45.66;101589.84;5069524;28;20897;-82
2023/09/30 04:41:55;;;;;;;0.40;0.40;;;;;;;17.42;45.94;101585.00;5041657;28;20407;-81
2023/09/30 04:44:22;;;;;;;0.30;0.30;;;;;;;17.35;46.47;101589.50;5070224;28;20449;-82
2023/09/30 04:46:48;;;;;;;0.30;0.30;;;;;;;17.31;46.39;101582.88;5069901;28;20410;-81
2023/09/30 04:49:15;;;;;;;0.30;0.30;;;;;;;17.28;46.61;101591.28;5057999;28;20435;-82
2023/09/30 04:51:41;;;;;;;0.40;0.32;;;;;;;17.31;46.77;101594.41;5053907;28;20495;-82
2023/09/30 04:54:10;;;;;;;0.20;0.20;;;;;;;17.28;47.14;101600.16;5051830;28;21027;-82
2023/09/30 04:56:38;;;;;;;0.50;0.30;;;;;;;17.22;47.27;101598.25;5061753;28;20409;-80
2023/09/30 04:59:04;;;;;;;0.40;0.40;;;;;;;17.33;47.05;101597.72;5067412;28;20477;-83
2023/09/30 05:01:34;;;;;;;0.47;0.43;;;;;;;17.45;46.82;101599.88;5069254;28;20545;-84
2023/09/30 05:03:59;;;;;;;0.50;0.50;;;;;;;17.48;46.83;101603.00;5057276;28;20895;-86
2023/09/30 05:06:25;;;;;;;0.60;0.60;;;;;;;17.45;47.05;101598.03;5069162;28;20428;-82
2023/09/30 05:08:50;;;;;;;0.10;0.10;;;;;;;17.53;46.92;101613.97;5064206;28;20396;-80
2023/09/30 05:11:17;;;;;;;0.22;0.22;;;;;;;17.60;46.65;101614.03;5069044;28;20410;-80
2023/09/30 05:13:42;;;;;;;0.20;0.20;;;;;;;17.61;46.69;101614.84;5069549;28;20379;-82
2023/09/30 05:16:08;;;;;;;0.20;0.20;;;;;;;17.80;46.02;101613.34;5068872;28;20383;-80
2023/09/30 05:18:33;;;;;;;0.30;0.30;;;;;;;18.01;45.82;101620.53;5067310;28;20379;-78
2023/09/30 05:21:01;;;;;;;0.20;0.20;;;;;;;18.15;45.52;101623.09;5067964;28;20461;-80
2023/09/30 05:23:27;;;;;;;0.40;0.30;;;;;;;18.26;45.10;101627.06;5048670;28;20401;-80
2023/09/30 05:26:00;;;;;;;0.20;0.20;;;;;;;18.39;45.08;101631.69;5048560;28;20397;-82
2023/09/30 05:28:32;;;;;;;0.22;0.22;;;;;;;18.30;45.12;101625.66;5049126;28;20393;-81
2023/09/30 05:31:02;;;;;;;0.10;0.10;;;;;;;18.40;45.14;101625.28;5048892;28;20413;-83
2023/09/30 05:33:36;;;;;;;0.22;0.22;;;;;;;18.39;45.19;101620.94;5048597;28;20432;-81
2023/09/30 05:36:21;;;;;;;0.70;0.38;;;;;;;18.51;44.96;101623.88;5068636;28;20407;-82
2023/09/30 05:39:10;;;;;;;1.10;1.00;;;;;;;18.60;44.90;101625.38;4954411;28;20920;-86
2023/09/30 05:41:39;;;;;;;0.20;0.20;;;;;;;18.69;44.79;101632.22;5009379;28;20438;-85
2023/09/30 05:44:09;;;;;;;0.60;0.60;;;;;;;18.76;44.85;101637.59;4991875;28;20404;-83
2023/09/30 05:46:35;;;;;;;0.40;0.40;;;;;;;18.90;44.57;101636.63;4974601;28;20402;-80
2023/09/30 05:49:11;;;;;;;0.38;0.38;;;;;;;18.97;44.44;101639.34;5013591;28;20396;-86
2023/09/30 05:51:42;;;;;;;0.20;0.20;;;;;;;19.00;44.66;101638.13;5017584;28;20410;-85
2023/09/30 05:54:13;;;;;;;0.90;0.30;;;;;;;19.13;44.40;101642.69;5013148;28;20891;-83
2023/09/30 05:56:57;;;;;;;0.25;0.25;;;;;;;19.32;44.12;101644.59;5015257;28;20380;-83
2023/09/30 05:59:25;;;;;;;0.13;0.13;;;;;;;19.43;43.90;101637.78;5017934;28;20396;-85
2023/09/30 06:01:51;;;;;;;0.35;0.35;;;;;;;19.55;43.75;101644.16;5010040;28;20399;-85
2023/09/30 06:04:30;;;;;;;0.30;0.30;;;;;;;19.61;43.67;101648.75;5011018;28;20416;-85
2023/09/30 06:07:28;;;;;;;0.40;0.40;;;;;;;19.71;43.59;101645.63;5025108;28;20522;-86
2023/09/30 06:09:55;;;;;;;0.40;0.40;;;;;;;19.89;43.29;101638.81;5009766;28;20428;-80
2023/09/30 06:12:26;;;;;;;0.10;0.10;;;;;;;20.00;43.21;101644.38;5010446;28;20439;-84
2023/09/30 06:14:53;;;;;;;0.20;0.20;;;;;;;20.06;42.99;101637.34;5010849;28;20601;-83
2023/09/30 06:17:22;;;;;;;0.15;0.15;;;;;;;20.08;43.04;101643.34;4994171;28;20879;-85
2023/09/30 06:19:50;;;;;;;0.80;0.65;;;;;;;20.22;42.91;101638.72;5010571;28;20832;-86
2023/09/30 06:22:18;;;;;;;0.13;0.13;;;;;;;20.27;42.81;101644.31;5011991;28;20400;-85
2023/09/30 06:24:44;;;;;;;0.50;0.40;;;;;;;20.29;42.69;101646.78;5009915;28;20906;-78
2023/09/30 06:27:16;;;;;;;0.40;0.40;;;;;;;20.36;42.74;101647.59;5009261;28;20437;-82
2023/09/30 06:29:59;;;;;;;0.20;0.20;;;;;;;20.49;42.49;101649.41;5006914;28;20577;-80
2023/09/30 06:32:44;;;;;;;0.10;0.10;;;;;;;20.55;42.37;101643.19;5009080;28;20408;-83
2023/09/30 06:35:11;;;;;;;0.40;0.40;;;;;;;20.64;42.28;101654.59;5009411;28;20439;-78
2023/09/30 06:37:41;;;;;;;0.20;0.20;;;;;;;20.80;42.02;101651.41;5009469;28;20395;-80
2023/09/30 06:40:10;;;;;;;0.20;0.20;;;;;;;20.85;41.89;101654.28;5009194;28;20400;-81
2023/09/30 06:42:37;;;;;;;0.32;0.32;;;;;;;20.91;41.68;101657.97;5008671;28;20499;-78
2023/09/30 06:45:06;;;;;;;0.28;0.28;;;;;;;20.97;41.73;101657.09;5008726;28;20530;-81
2023/09/30 06:47:36;;;;;;;0.20;0.20;;;;;;;21.03;41.51;101660.78;5011129;28;20430;-78
2023/09/30 06:50:08;;;;;;;0.10;0.10;;;;;;;21.05;41.51;101666.78;5010495;28;20399;-85
2023/09/30 06:52:59;;;;;;;0.30;0.30;;;;;;;21.09;41.29;101654.56;4995127;28;20408;-84
2023/09/30 06:55:29;;;;;;;0.30;0.30;;;;;;;21.25;41.25;101653.19;5011114;28;20404;-87
2023/09/30 06:57:55;;;;;;;0.17;0.17;;;;;;;21.47;40.92;101669.88;5015198;28;20384;-88
2023/09/30 07:00:21;;;;;;;0.30;0.30;;;;;;;21.41;40.92;101670.69;5015056;28;20399;-87
2023/09/30 07:02:52;;;;;;;0.50;0.50;;;;;;;21.43;40.98;101661.38;5030552;28;20399;-87
2023/09/30 07:05:17;;;;;;;0.50;0.50;;;;;;;21.58;40.83;101664.56;4998137;28;20396;-86
2023/09/30 07:07:45;;;;;;;0.30;0.30;;;;;;;21.74;40.70;101665.91;5013044;28;20486;-84
2023/09/30 07:10:12;;;;;;;0.20;0.20;;;;;;;21.81;40.57;101673.13;5013709;28;20399;-84
2023/09/30 07:12:41;;;;;;;0.45;0.32;;;;;;;21.88;40.50;101674.72;5012187;28;20932;-82
2023/09/30 07:15:19;;;;;;;0.20;0.20;;;;;;;21.85;40.74;101661.66;5012506;28;20913;-83
2023/09/30 07:17:47;;;;;;;0.15;0.15;;;;;;;21.88;40.73;101663.91;5014517;28;20450;-83
2023/09/30 07:20:14;;;;;;;0.20;0.20;;;;;;;21.95;40.61;101663.84;4998025;28;20907;-86
2023/09/30 07:23:09;;;;;;;0.60;0.50;;;;;;;22.13;40.35;101658.47;5014376;28;20406;-86
2023/09/30 07:25:35;;;;;;;0.30;0.30;;;;;;;22.33;39.95;101654.75;5014397;28;20407;-85
2023/09/30 07:28:04;;;;;;;0.20;0.20;;;;;;;22.40;40.11;101663.63;5032294;28;20403;-83
2023/09/30 07:30:32;;;;;;;0.20;0.20;;;;;;;22.40;39.91;101658.22;5011636;28;20411;-85
2023/09/30 07:33:04;;;;;;;0.30;0.30;;;;;;;22.43;40.09;101657.75;4977752;28;20515;-86
2023/09/30 07:35:30;;;;;;;0.30;0.30;;;;;;;22.51;40.13;101662.84;5005456;28;20408;-82
2023/09/30 07:37:58;;;;;;;0.10;0.10;;;;;;;22.50;40.16;101652.25;5009107;28;20846;-82
2023/09/30 07:40:25;;;;;;;0.30;0.30;;;;;;;22.59;40.11;101661.72;4993454;28;20392;-81
2023/09/30 07:43:12;;;;;;;0.40;0.40;;;;;;;22.67;39.80;101657.84;4990702;28;20484;-87
2023/09/30 07:45:40;;;;;;;0.20;0.20;;;;;;;22.81;39.91;101658.50;4991218;28;20490;-87
2023/09/30 07:48:18;;;;;;;0.13;0.13;;;;;;;22.87;39.69;101658.44;4992168;28;20789;-86
2023/09/30 07:50:47;;;;;;;0.33;0.33;;;;;;;22.99;39.63;101660.34;4998231;28;20409;-81
2023/09/30 07:53:13;;;;;;;0.50;0.50;;;;;;;22.93;39.90;101664.81;4999612;28;20496;-84
2023/09/30 07:55:41;;;;;;;0.20;0.20;;;;;;;23.07;39.86;101658.19;4991267;28;20390;-85
2023/09/30 07:58:07;;;;;;;0.57;0.57;;;;;;;23.15;39.65;101670.53;4992258;28;21030;-83
2023/09/30 08:00:34;;;;;;;0.70;0.70;;;;;;;23.08;39.88;101670.66;4999337;28;20475;-85
2023/09/30 08:03:03;;;;;;;0.30;0.30;;;;;;;23.21;39.77;101663.38;5030771;28;20864;-88
2023/09/30 08:05:42;;;;;;;0.25;0.25;;;;;;;23.35;39.14;101664.00;5015558;28;20914;-89
2023/09/30 08:08:09;;;;;;;0.20;0.20;;;;;;;23.53;38.44;101652.28;5014007;28;20424;-86
2023/09/30 08:10:42;;;;;;;0.10;0.10;;;;;;;23.57;37.61;101661.56;5015135;28;20388;-87
2023/09/30 08:13:09;;;;;;;0.20;0.20;;;;;;;23.65;37.20;101659.34;5037935;28;20414;-85
2023/09/30 08:15:46;;;;;;;0.40;0.40;;;;;;;23.76;37.07;101652.28;5035412;28;20399;-89
2023/09/30 08:18:16;;;;;;;0.30;0.30;;;;;;;23.87;37.31;101655.28;5048569;28;20485;-86
2023/09/30 08:20:42;;;;;;;0.20;0.20;;;;;;;23.94;37.50;101659.50;5032520;28;20410;-88
2023/09/30 08:23:11;;;;;;;0.10;0.10;;;;;;;23.91;37.05;101646.41;5031739;28;20438;-85
2023/09/30 08:25:38;;;;;;;0.22;0.22;;;;;;;23.98;36.67;101643.59;5014605;28;20399;-86
2023/09/30 08:28:23;;;;;;;0.40;0.40;;;;;;;24.09;36.63;101650.06;4957837;28;20413;-86
2023/09/30 08:30:54;;;;;;;0.43;0.43;;;;;;;24.31;36.52;101647.53;5062717;28;20384;-87
2023/09/30 08:33:22;;;;;;;0.77;0.77;;;;;;;24.15;35.75;101647.22;5052586;28;20475;-86
2023/09/30 08:35:50;;;;;;;0.20;0.20;;;;;;;24.42;36.11;101650.25;5051433;28;20404;-86
2023/09/30 08:38:16;;;;;;;0.20;0.20;;;;;;;24.52;35.37;101644.19;5068643;28;20492;-86
2023/09/30 08:40:52;;;;;;;0.10;0.10;;;;;;;24.63;35.36;101637.09;5035911;28;20410;-86
2023/09/30 08:43:27;;;;;;;0.28;0.28;;;;;;;24.67;35.19;101640.16;5036935;28;20787;-87
2023/09/30 08:45:53;;;;;;;0.20;0.20;;;;;;;24.69;35.26;101644.28;5033120;28;20388;-87
2023/09/30 08:48:21;;;;;;;0.20;0.20;;;;;;;24.66;34.99;101633.91;5050380;28;20400;-78
2023/09/30 08:50:49;;;;;;;0.28;0.28;;;;;;;24.67;35.58;101627.44;5040217;28;20395;-80
2023/09/30 08:53:16;;;;;;;0.20;0.20;;;;;;;24.75;35.51;101637.06;5049907;28;20413;-89
2023/09/30 08:55:45;;;;;;;0.77;0.77;;;;;;;24.89;34.92;101632.19;5036202;28;20440;-86
2023/09/30 08:58:12;;;;;;;0.20;0.20;;;;;;;25.00;34.38;101632.09;5023053;28;20386;-81
2023/09/30 09:00:39;;;;;;;0.30;0.30;;;;;;;25.14;34.19;101645.38;5044266;28;20480;-91
2023/09/30 09:03:08;;;;;;;0.50;0.40;;;;;;;25.06;33.15;101635.72;5023279;28;20573;-85
2023/09/30 09:05:33;;;;;;;0.10;0.10;;;;;;;25.14;32.28;101623.66;5049090;28;20413;-85
2023/09/30 09:07:59;;;;;;;0.17;0.17;;;;;;;25.25;32.17;101632.84;5046590;28;20412;-81
2023/09/30 09:10:27;;;;;;;0.47;0.47;;;;;;;25.45;32.36;101626.91;5033512;28;20398;-86
2023/09/30 09:12:57;;;;;;;0.22;0.22;;;;;;;25.55;32.12;101633.31;5002894;28;20812;-85
2023/09/30 09:15:30;;;;;;;0.10;0.10;;;;;;;25.60;31.78;101629.84;5030696;28;20479;-85
2023/09/30 09:17:56;;;;;;;0.22;0.22;;;;;;;25.63;31.79;101625.81;5046519;28;20974;-87
2023/09/30 09:20:25;;;;;;;0.30;0.30;;;;;;;25.65;31.63;101624.50;5044285;28;20812;-84
2023/09/30 09:22:55;;;;;;;0.20;0.20;;;;;;;25.76;31.94;101617.31;5026011;28;20939;-83
2023/09/30 09:25:28;;;;;;;0.50;0.50;;;;;;;25.86;31.16;101619.38;5010235;28;20485;-83
2023/09/30 09:27:54;;;;;;;0.30;0.30;;;;;;;25.87;30.69;101623.72;5026044;28;20493;-86
2023/09/30 09:30:31;;;;;;;0.55;0.55;;;;;;;25.96;30.94;101614.09;5027655;28;20402;-85
2023/09/30 09:33:11;;;;;;;0.70;0.70;;;;;;;26.01;30.88;101613.34;4980373;28;21065;-84
2023/09/30 09:35:38;;;;;;;0.30;0.30;;;;;;;25.99;31.00;101616.31;5027978;28;20904;-84
2023/09/30 09:38:08;;;;;;;0.30;0.20;;;;;;;26.03;31.44;101617.44;5028820;28;20391;-85
2023/09/30 09:40:36;;;;;;;0.30;0.30;;;;;;;26.17;31.23;101617.91;5030437;28;20525;-84
2023/09/30 09:43:06;;;;;;;0.47;0.47;;;;;;;26.15;30.81;101611.91;5046262;28;20394;-84
2023/09/30 09:45:40;;;;;;;0.30;0.30;;;;;;;26.05;31.83;101603.63;5030070;28;20913;-85
2023/09/30 09:48:09;;;;;;;0.28;0.28;;;;;;;26.24;30.89;101613.09;5030399;28;20466;-84
2023/09/30 09:50:38;;;;;;;0.30;0.30;;;;;;;26.41;30.67;101602.13;5012803;28;20825;-84
2023/09/30 09:53:21;;;;;;;0.20;0.20;;;;;;;26.59;30.10;101600.16;5027727;28;20920;-84
2023/09/30 09:55:47;;;;;;;0.20;0.20;;;;;;;26.52;30.50;101601.19;5030995;28;20412;-84
2023/09/30 09:58:27;;;;;;;0.20;0.20;;;;;;;26.58;30.08;101599.34;5031737;28;20402;-84
2023/09/30 10:00:53;;;;;;;0.30;0.30;;;;;;;26.66;30.22;101590.75;5029810;28;20405;-88
2023/09/30 10:03:19;;;;;;;0.30;0.30;;;;;;;26.83;29.99;101597.97;5043059;28;20414;-83
2023/09/30 10:05:49;;;;;;;0.30;0.30;;;;;;;26.85;29.79;101585.78;5049538;28;20416;-82
2023/09/30 10:08:31;;;;;;;0.25;0.25;;;;;;;26.91;29.79;101585.81;5059140;28;20750;-84
2023/09/30 10:11:00;;;;;;;0.20;0.20;;;;;;;26.90;29.83;101579.53;5047573;28;20396;-85
2023/09/30 10:13:55;;;;;;;1.60;0.50;;;;;;;26.79;30.06;101584.06;5047730;28;20401;-85
2023/09/30 10:16:36;;;;;;;0.30;0.30;;;;;;;26.85;30.14;101583.03;5065966;28;20412;-85
2023/09/30 10:19:08;;;;;;;0.33;0.33;;;;;;;26.84;31.04;101575.94;5047495;28;20438;-86
2023/09/30 10:21:34;;;;;;;0.30;0.30;;;;;;;26.93;31.04;101570.06;5044571;28;20396;-86
2023/09/30 10:24:25;;;;;;;0.20;0.20;;;;;;;26.95;31.29;101570.59;5046819;28;20397;-87
2023/09/30 10:27:29;;;;;;;0.20;0.20;;;;;;;26.98;31.92;101567.38;5047959;28;20895;-85
2023/09/30 10:30:24;;;;;;;0.30;0.30;;;;;;;27.08;29.74;101575.59;5057333;28;20450;-83
2023/09/30 10:32:50;;;;;;;0.40;0.40;;;;;;;26.83;27.72;101560.72;5052347;28;20938;-85
2023/09/30 10:35:31;;;;;;;0.30;0.30;;;;;;;27.08;28.02;101564.72;5053335;28;20403;-86
2023/09/30 10:38:29;;;;;;;0.30;0.30;;;;;;;27.23;28.43;101550.44;5018126;28;20497;-86
2023/09/30 10:40:56;;;;;;;0.10;0.10;;;;;;;27.36;28.68;101544.53;4976444;28;21036;-85
2023/09/30 10:43:41;;;;;;;0.20;0.20;;;;;;;27.49;28.56;101545.97;4976349;28;20546;-87
2023/09/30 10:46:31;;;;;;;0.30;0.30;;;;;;;27.59;27.93;101537.06;5033477;28;20781;-86
2023/09/30 10:48:57;;;;;;;0.30;0.20;;;;;;;27.40;28.99;101533.94;5041312;28;20404;-85
2023/09/30 10:51:23;;;;;;;0.40;0.40;;;;;;;27.46;29.40;101532.91;5053268;28;20393;-87
2023/09/30 10:53:56;;;;;;;0.30;0.30;;;;;;;27.49;29.02;101532.34;5052290;28;20392;-85
2023/09/30 10:56:26;;;;;;;0.73;0.43;;;;;;;27.61;27.83;101526.72;5036450;28;20388;-86
2023/09/30 10:58:52;;;;;;;0.20;0.20;;;;;;;27.64;28.08;101512.53;5036227;28;20475;-88
2023/09/30 11:01:23;;;;;;;0.43;0.43;;;;;;;27.69;28.92;101512.56;5052434;28;20399;-86
2023/09/30 11:03:51;;;;;;;0.20;0.20;;;;;;;27.79;29.04;101517.25;5052652;28;20393;-85
2023/09/30 11:06:20;;;;;;;0.35;0.35;;;;;;;27.90;28.15;101509.94;5054312;28;20432;-87
2023/09/30 11:09:00;;;;;;;0.60;0.60;;;;;;;27.89;27.64;101495.47;5052260;28;20487;-84
2023/09/30 11:11:44;;;;;;;0.75;0.60;;;;;;;28.05;27.93;101498.28;5053456;28;20404;-85
2023/09/30 11:14:19;;;;;;;0.30;0.30;;;;;;;28.01;28.37;101498.81;5034549;28;20396;-86
2023/09/30 11:16:45;;;;;;;0.82;0.70;;;;;;;28.15;27.93;101493.69;5053505;28;20389;-85
2023/09/30 11:19:17;;;;;;;0.43;0.38;;;;;;;28.11;27.20;101486.31;5052317;28;20780;-85
2023/09/30 11:21:45;;;;;;;0.30;0.30;;;;;;;28.17;27.73;101488.78;5037553;28;20854;-85
2023/09/30 11:24:14;;;;;;;0.60;0.60;;;;;;;28.19;28.05;101481.16;5054542;28;20401;-85
2023/09/30 11:26:43;;;;;;;0.80;0.77;;;;;;;28.26;27.32;101475.44;5052376;28;20383;-85
2023/09/30 11:29:31;;;;;;;0.40;0.40;;;;;;;28.27;27.40;101476.25;5018357;28;20753;-85
2023/09/30 11:32:05;;;;;;;0.50;0.50;;;;;;;28.37;27.63;101463.44;5051141;28;20451;-85
2023/09/30 11:34:34;;;;;;;0.63;0.47;;;;;;;28.36;27.61;101461.84;5051508;28;20424;-85
2023/09/30 11:37:00;;;;;;;0.60;0.60;;;;;;;28.42;26.78;101468.09;5035092;28;20394;-85